Map

Track Data

SID SEASON NUMBER BASIN SUBBASIN NAME ISO_TIME NATURE LAT LON WMO_WIND WMO_PRES WMO_AGENCY TRACK_TYPE DIST2LAND LANDFALL IFLAG USA_AGENCY USA_ATCF_ID USA_LAT USA_LON USA_RECORD USA_STATUS USA_WIND USA_PRES USA_SSHS USA_R34_NE USA_R34_SE USA_R34_SW USA_R34_NW USA_R50_NE USA_R50_SE USA_R50_SW USA_R50_NW USA_R64_NE USA_R64_SE USA_R64_SW USA_R64_NW USA_POCI USA_ROCI USA_RMW USA_EYE TOKYO_LAT TOKYO_LON TOKYO_GRADE TOKYO_WIND TOKYO_PRES TOKYO_R50_DIR TOKYO_R50_LONG TOKYO_R50_SHORT TOKYO_R30_DIR TOKYO_R30_LONG TOKYO_R30_SHORT TOKYO_LAND CMA_LAT CMA_LON CMA_CAT CMA_WIND CMA_PRES HKO_LAT HKO_LON HKO_CAT HKO_WIND HKO_PRES NEWDELHI_LAT NEWDELHI_LON NEWDELHI_GRADE NEWDELHI_WIND NEWDELHI_PRES NEWDELHI_CI NEWDELHI_DP NEWDELHI_POCI REUNION_LAT REUNION_LON REUNION_TYPE REUNION_WIND REUNION_PRES REUNION_TNUM REUNION_CI REUNION_RMW REUNION_R34_NE REUNION_R34_SE REUNION_R34_SW REUNION_R34_NW REUNION_R50_NE REUNION_R50_SE REUNION_R50_SW REUNION_R50_NW REUNION_R64_NE REUNION_R64_SE REUNION_R64_SW REUNION_R64_NW BOM_LAT BOM_LON BOM_TYPE BOM_WIND BOM_PRES BOM_TNUM BOM_CI BOM_RMW BOM_R34_NE BOM_R34_SE BOM_R34_SW BOM_R34_NW BOM_R50_NE BOM_R50_SE BOM_R50_SW BOM_R50_NW BOM_R64_NE BOM_R64_SE BOM_R64_SW BOM_R64_NW BOM_ROCI BOM_POCI BOM_EYE BOM_POS_METHOD BOM_PRES_METHOD NADI_LAT NADI_LON NADI_CAT NADI_WIND NADI_PRES WELLINGTON_LAT WELLINGTON_LON WELLINGTON_WIND WELLINGTON_PRES DS824_LAT DS824_LON DS824_STAGE DS824_WIND DS824_PRES TD9636_LAT TD9636_LON TD9636_STAGE TD9636_WIND TD9636_PRES TD9635_LAT TD9635_LON TD9635_WIND TD9635_PRES TD9635_ROCI NEUMANN_LAT NEUMANN_LON NEUMANN_CLASS NEUMANN_WIND NEUMANN_PRES MLC_LAT MLC_LON MLC_CLASS MLC_WIND MLC_PRES USA_GUST BOM_GUST BOM_GUST_PER REUNION_GUST REUNION_GUST_PER USA_SEAHGT USA_SEARAD_NE USA_SEARAD_SE USA_SEARAD_SW USA_SEARAD_NW STORM_SPEED STORM_DIR
1944215N21140 1944 44 WP MM NOT_NAMED 1944-08-02 09:00:00 NR 20.8000 140.000 main 1460 1333 __________O___ -1 20.8000 140.000 4 23 331
1944215N21140 1944 44 WP MM NOT_NAMED 1944-08-02 12:00:00 NR 21.8088 139.408 main 1333 1221 __________P___ -1 21.8088 139.408 4 23 332
1944215N21140 1944 44 WP MM NOT_NAMED 1944-08-02 15:00:00 NR 22.7733 138.848 main 1206 1110 __________P___ -1 22.7733 138.848 4 21 332
1944215N21140 1944 44 WP MM NOT_NAMED 1944-08-02 18:00:00 NR 23.6509 138.364 main 1101 1014 __________P___ -1 23.6509 138.364 4 18 334
1944215N21140 1944 44 WP MM NOT_NAMED 1944-08-02 21:00:00 NR 24.4000 138.000 main 1014 949 __________O___ -1 24.4000 138.000 4 14 338
1944215N21140 1944 44 WP MM NOT_NAMED 1944-08-03 00:00:00 NR 24.9908 137.782 main 949 909 __________P___ -1 24.9908 137.782 4 11 343
1944215N21140 1944 44 WP MM NOT_NAMED 1944-08-03 03:00:00 NR 25.4378 137.658 main 909 865 __________P___ -1 25.4378 137.658 4 8 345
1944215N21140 1944 44 WP MM NOT_NAMED 1944-08-03 06:00:00 NR 25.7660 137.555 main 865 839 __________P___ -1 25.7660 137.555 4 6 338
1944215N21140 1944 44 WP MM NOT_NAMED 1944-08-03 09:00:00 NR 26.0000 137.400 main 839 804 __________O___ -1 26.0000 137.400 4 6 308
1944215N21140 1944 44 WP MM NOT_NAMED 1944-08-03 12:00:00 NR 26.1387 137.016 main 804 769 __________P___ -1 26.1387 137.016 4 8 285
1944215N21140 1944 44 WP MM NOT_NAMED 1944-08-03 15:00:00 NR 26.2017 136.582 main 769 736 __________P___ -1 26.2017 136.582 4 8 279
1944215N21140 1944 44 WP MM NOT_NAMED 1944-08-03 18:00:00 NR 26.2636 136.182 main 736 709 __________P___ -1 26.2636 136.182 4 6 288
1944215N21140 1944 44 WP MM NOT_NAMED 1944-08-03 21:00:00 NR 26.4000 135.900 main 709 682 __________O___ -1 26.4000 135.900 4 5 331
1944215N21140 1944 44 WP MM NOT_NAMED 1944-08-04 00:00:00 NR 26.7335 135.888 main 682 654 __________P___ -1 26.7335 135.888 4 8 6
1944215N21140 1944 44 WP MM NOT_NAMED 1944-08-04 03:00:00 NR 27.1470 135.994 main 654 621 __________P___ -1 27.1470 135.994 4 9 14
1944215N21140 1944 44 WP MM NOT_NAMED 1944-08-04 06:00:00 NR 27.5869 136.129 main 621 598 __________P___ -1 27.5869 136.129 4 9 12
1944215N21140 1944 44 WP MM NOT_NAMED 1944-08-04 09:00:00 NR 28.0000 136.200 main 598 569 __________O___ -1 28.0000 136.200 4 7 355
1944215N21140 1944 44 WP MM NOT_NAMED 1944-08-04 12:00:00 NR 28.2909 136.068 main 569 540 __________P___ -1 28.2909 136.068 4 6 331
1944215N21140 1944 44 WP MM NOT_NAMED 1944-08-04 15:00:00 NR 28.5504 135.861 main 533 496 __________P___ -1 28.5504 135.861 4 7 323
1944215N21140 1944 44 WP MM NOT_NAMED 1944-08-04 18:00:00 NR 28.8097 135.624 main 496 461 __________P___ -1 28.8097 135.624 4 7 324
1944215N21140 1944 44 WP MM NOT_NAMED 1944-08-04 21:00:00 NR 29.1000 135.400 main 461 423 __________O___ -1 29.1000 135.400 4 7 332
1944215N21140 1944 44 WP MM NOT_NAMED 1944-08-05 00:00:00 NR 29.4600 135.229 main 413 379 __________P___ -1 29.4600 135.229 4 8 340
1944215N21140 1944 44 WP MM NOT_NAMED 1944-08-05 03:00:00 NR 29.8550 135.083 main 370 337 __________P___ -1 29.8550 135.083 4 8 345
1944215N21140 1944 44 WP MM NOT_NAMED 1944-08-05 06:00:00 NR 30.2725 134.970 main 327 286 __________P___ -1 30.2725 134.970 4 9 349
1944215N21140 1944 44 WP MM NOT_NAMED 1944-08-05 09:00:00 NR 30.7000 134.900 main 286 243 __________O___ -1 30.7000 134.900 7 9 355
1944215N21140 1944 44 WP MM NOT_NAMED 1944-08-05 12:00:00 NR 31.1502 134.881 main 232 190 __________P___ -1 31.1502 134.881 7 9 0
1944215N21140 1944 44 WP MM NOT_NAMED 1944-08-05 15:00:00 NR 31.6024 134.904 main 190 148 __________P___ -1 31.6024 134.904 7 9 4
1944215N21140 1944 44 WP MM NOT_NAMED 1944-08-05 18:00:00 NR 32.0284 134.950 main 148 116 __________P___ -1 32.0284 134.950 7 8 5
1944215N21140 1944 44 WP MM NOT_NAMED 1944-08-05 21:00:00 NR 32.4000 135.000 main 116 93 __________O___ -1 32.4000 135.000 7 7 5
1944215N21140 1944 44 WP MM NOT_NAMED 1944-08-06 00:00:00 NR 32.6784 135.021 main 93 81 __________P___ -1 32.6784 135.021 7 5 4
1944215N21140 1944 44 WP MM NOT_NAMED 1944-08-06 03:00:00 NR 32.9024 135.043 main 81 66 __________P___ -1 32.9024 135.043 7 4 6
1944215N21140 1944 44 WP MM NOT_NAMED 1944-08-06 06:00:00 NR 33.1003 135.068 main 66 49 __________P___ -1 33.1003 135.068 7 4 6
1944215N21140 1944 44 WP MM NOT_NAMED 1944-08-06 09:00:00 NR 33.3000 135.100 main 49 35 __________O___ -1 33.3000 135.100 7 4 8
1944215N21140 1944 44 WP MM NOT_NAMED 1944-08-06 12:00:00 NR 33.5184 135.131 main 35 14 __________P___ -1 33.5184 135.131 7 5 7
1944215N21140 1944 44 WP MM NOT_NAMED 1944-08-06 15:00:00 NR 33.7474 135.171 main 14 0 __________P___ -1 33.7474 135.171 7 5 9
1944215N21140 1944 44 WP MM NOT_NAMED 1944-08-06 18:00:00 NR 34.0028 135.225 main 0 0 __________P___ -1 34.0028 135.225 7 6 11
1944215N21140 1944 44 WP MM NOT_NAMED 1944-08-06 21:00:00 NR 34.3000 135.300 main 0 0 __________O___ -1 34.3000 135.300 7 7 12
1944215N21140 1944 44 WP MM NOT_NAMED 1944-08-07 00:00:00 NR 34.6610 135.399 main 0 0 __________P___ -1 34.6610 135.399 7 8 13
1944215N21140 1944 44 WP MM NOT_NAMED 1944-08-07 03:00:00 NR 35.0625 135.520 main 0 0 __________P___ -1 35.0625 135.520 7 9 14
1944215N21140 1944 44 WP MM NOT_NAMED 1944-08-07 06:00:00 NR 35.4828 135.656 main 0 0 __________P___ -1 35.4828 135.656 7 9 15
1944215N21140 1944 44 WP MM NOT_NAMED 1944-08-07 09:00:00 NR 35.9000 135.800 main 21 17 __________O___ -1 35.9000 135.800 7 7 9
1944215N21140 1944 44 WP MM NOT_NAMED 1944-08-07 12:00:00 NR 36.1567 135.795 main 26 26 __________P___ -1 36.1567 135.795 7 5 2
1944215N21140 1944 44 WP MM NOT_NAMED 1944-08-07 15:00:00 NR 36.4259 135.819 main 29 29 __________P___ -1 36.4259 135.819 7 7 13
1944215N21140 1944 44 WP MM NOT_NAMED 1944-08-07 18:00:00 NR 36.8073 135.982 main 55 34 __________P___ -1 36.8073 135.982 7 11 25
1944215N21140 1944 44 WP MM NOT_NAMED 1944-08-07 21:00:00 NR 37.4000 136.400 main 34 28 __________O___ -1 37.4000 136.400 7 18 32
1944215N21140 1944 44 WP MM NOT_NAMED 1944-08-08 00:00:00 NR 38.3534 137.207 main 111 111 __________P___ -1 38.3534 137.207 7 26 35
1944215N21140 1944 44 WP MM NOT_NAMED 1944-08-08 03:00:00 NR 39.5049 138.305 main 127 33 __________P___ -1 39.5049 138.305 7 30 38
1944215N21140 1944 44 WP MM NOT_NAMED 1944-08-08 06:00:00 NR 40.7280 139.603 main 27 0 __________P___ -1 40.7280 139.603 7 31 40
1944215N21140 1944 44 WP MM NOT_NAMED 1944-08-08 09:00:00 NR 41.9000 141.000 main 0 0 __________O___ -1 41.9000 141.000 7 30 43
1944215N21140 1944 44 WP MM NOT_NAMED 1944-08-08 12:00:00 NR 42.9297 142.400 main 0 0 __________P___ -1 42.9297 142.400 7 28 47
1944215N21140 1944 44 WP MM NOT_NAMED 1944-08-08 15:00:00 NR 43.8311 143.791 main 0 0 __________P___ -1 43.8311 143.791 7 26 50
1944215N21140 1944 44 WP MM NOT_NAMED 1944-08-08 18:00:00 NR 44.6423 145.186 main 44 44 __________P___ -1 44.6423 145.186 7 25 52
1944215N21140 1944 44 WP MM NOT_NAMED 1944-08-08 21:00:00 NR 45.4000 146.600 main 81 __________O___ -1 45.4000 146.600 7 25 53

Digital Typhoon Data and Search

About IBTrACS Database

This database is a web-friendly format of International Best Track Archive for Climate Stewardship (IBTrACS), a global best track data archive curated by NOAA dating back to 1842.

Updated: 2021-10-27